Portada
METAR-TAF:

METAR-TAF

Aeropuertos :

Sétif, Argelia

latitud: 36-11N, longitud: 005-25E, altitud: 1038 m

Observación

El informe se hizo hace 37 minutos, a las 01:00 UTC
Viento 4 kt del norte
Temperatura 4°C
Humedad 60%
Presión 1026 hPa
Visibilidad 10 km o más
sin nubes por debajo de 1500 m y sin presencia de cumulonimbus.

METAR: DAAS 210100Z 01004KT CAVOK 04/M03 Q1026

Hora: 02:37 (01:37 UTC)

Pronóstico

El informe se hizo hace 2 horas y 37 minutos, a las 23:00 UTC
Pronóstico válido del 21 a las 00 UTC al 21 a las 24 UTC
Viento 8 kt del este-sureste
Visibilidad 10 km o más
sin nubes por debajo de 1500 m y sin presencia de cumulonimbus.
Probabilidad 30% :
Temporalmente
del 21 a las 00 UTC al 21 a las 08 UTC
Visibilidad: 2000 m
Cielo nuboso a una altura de 1000 ft
neblina

TAF: DAAS 202300Z 2100/2124 12008KT CAVOK PROB30 TEMPO 2100/2108 2000 BR BKN010

Observaciones y pronósticos meteorológicos de más de 4000 aeropuertos (mensajes METAR y TAF).

Los puntos amarillos y rojos representan las estaciones disponibles.

Ponga el ratón en el punto deseado para ver el nombre de la estación.

Haga clic para ver las observaciones y los pronósticos meteorológicos.

Para cambiar el mapa : haga clic en los botones verdes con una cruz de color negro para hacer un zoom, en el botón verde con un guión para alejar o en las flechas verdes para mapas adyacentes.


METAR-TAF: